sensor_id;sensor_type;location;lat;lon;timestamp;P1;durP1;ratioP1;P2;durP2;ratioP2
53263;SDS011;39153;52.680;6.172;2023-08-07T00:00:34;11.15;;;3.58;;
53263;SDS011;39153;52.680;6.172;2023-08-07T00:03:00;11.80;;;3.53;;
53263;SDS011;39153;52.680;6.172;2023-08-07T00:05:27;11.52;;;2.90;;
53263;SDS011;39153;52.680;6.172;2023-08-07T00:07:53;13.90;;;4.00;;
53263;SDS011;39153;52.680;6.172;2023-08-07T00:10:19;10.63;;;3.53;;
53263;SDS011;39153;52.680;6.172;2023-08-07T00:12:44;10.75;;;2.78;;
53263;SDS011;39153;52.680;6.172;2023-08-07T00:15:10;12.38;;;3.78;;
53263;SDS011;39153;52.680;6.172;2023-08-07T00:17:36;17.17;;;2.97;;
53263;SDS011;39153;52.680;6.172;2023-08-07T00:20:03;13.60;;;3.50;;
53263;SDS011;39153;52.680;6.172;2023-08-07T00:22:29;16.38;;;3.13;;
53263;SDS011;39153;52.680;6.172;2023-08-07T00:24:55;14.82;;;4.50;;
53263;SDS011;39153;52.680;6.172;2023-08-07T00:27:21;15.10;;;3.78;;
53263;SDS011;39153;52.680;6.172;2023-08-07T00:29:47;16.67;;;3.22;;
53263;SDS011;39153;52.680;6.172;2023-08-07T00:32:12;14.23;;;4.13;;
53263;SDS011;39153;52.680;6.172;2023-08-07T00:34:38;12.70;;;3.92;;
53263;SDS011;39153;52.680;6.172;2023-08-07T00:37:04;15.95;;;3.85;;
53263;SDS011;39153;52.680;6.172;2023-08-07T00:39:30;19.05;;;4.30;;
53263;SDS011;39153;52.680;6.172;2023-08-07T00:41:55;15.23;;;4.22;;
53263;SDS011;39153;52.680;6.172;2023-08-07T00:44:21;18.08;;;4.60;;
53263;SDS011;39153;52.680;6.172;2023-08-07T00:46:48;11.90;;;3.90;;
53263;SDS011;39153;52.680;6.172;2023-08-07T00:49:14;15.02;;;4.32;;
53263;SDS011;39153;52.680;6.172;2023-08-07T00:51:41;13.20;;;4.15;;
53263;SDS011;39153;52.680;6.172;2023-08-07T00:54:07;14.18;;;3.47;;
53263;SDS011;39153;52.680;6.172;2023-08-07T00:56:35;14.18;;;3.55;;
53263;SDS011;39153;52.680;6.172;2023-08-07T00:59:02;13.00;;;3.58;;
53263;SDS011;39153;52.680;6.172;2023-08-07T01:01:28;12.40;;;4.60;;
53263;SDS011;39153;52.680;6.172;2023-08-07T01:03:54;11.52;;;4.25;;
53263;SDS011;39153;52.680;6.172;2023-08-07T01:06:20;9.70;;;3.72;;
53263;SDS011;39153;52.680;6.172;2023-08-07T01:08:46;8.07;;;3.85;;
53263;SDS011;39153;52.680;6.172;2023-08-07T01:19:31;9.45;;;2.63;;
53263;SDS011;39153;52.680;6.172;2023-08-07T01:22:05;8.65;;;2.50;;
53263;SDS011;39153;52.680;6.172;2023-08-07T01:24:38;9.52;;;2.20;;
53263;SDS011;39153;52.680;6.172;2023-08-07T01:35:02;12.13;;;2.63;;
53263;SDS011;39153;52.680;6.172;2023-08-07T01:37:30;11.18;;;1.60;;
53263;SDS011;39153;52.680;6.172;2023-08-07T01:40:00;11.27;;;3.08;;
53263;SDS011;39153;52.680;6.172;2023-08-07T01:42:29;9.57;;;2.38;;
53263;SDS011;39153;52.680;6.172;2023-08-07T01:44:55;11.20;;;2.60;;
53263;SDS011;39153;52.680;6.172;2023-08-07T01:47:21;10.30;;;3.13;;
53263;SDS011;39153;52.680;6.172;2023-08-07T01:49:46;13.55;;;2.25;;
53263;SDS011;39153;52.680;6.172;2023-08-07T01:52:12;13.57;;;2.70;;
53263;SDS011;39153;52.680;6.172;2023-08-07T01:54:38;10.27;;;2.33;;
53263;SDS011;39153;52.680;6.172;2023-08-07T01:57:04;8.77;;;2.45;;
53263;SDS011;39153;52.680;6.172;2023-08-07T01:59:30;6.28;;;2.13;;
53263;SDS011;39153;52.680;6.172;2023-08-07T02:01:55;10.23;;;1.63;;
53263;SDS011;39153;52.680;6.172;2023-08-07T02:04:21;8.85;;;2.17;;
53263;SDS011;39153;52.680;6.172;2023-08-07T02:06:47;7.38;;;1.90;;
53263;SDS011;39153;52.680;6.172;2023-08-07T02:09:12;8.90;;;2.10;;
53263;SDS011;39153;52.680;6.172;2023-08-07T02:11:38;9.15;;;2.00;;
53263;SDS011;39153;52.680;6.172;2023-08-07T02:14:03;6.13;;;1.80;;
53263;SDS011;39153;52.680;6.172;2023-08-07T02:16:29;11.43;;;2.15;;
53263;SDS011;39153;52.680;6.172;2023-08-07T02:18:55;7.93;;;1.23;;
53263;SDS011;39153;52.680;6.172;2023-08-07T02:21:20;9.77;;;2.25;;
53263;SDS011;39153;52.680;6.172;2023-08-07T02:23:46;9.60;;;2.03;;
53263;SDS011;39153;52.680;6.172;2023-08-07T02:26:13;6.18;;;1.40;;
53263;SDS011;39153;52.680;6.172;2023-08-07T02:28:38;7.28;;;1.65;;
53263;SDS011;39153;52.680;6.172;2023-08-07T02:31:04;11.30;;;2.28;;
53263;SDS011;39153;52.680;6.172;2023-08-07T02:33:30;8.45;;;2.00;;
53263;SDS011;39153;52.680;6.172;2023-08-07T02:35:56;10.82;;;2.20;;
53263;SDS011;39153;52.680;6.172;2023-08-07T02:38:21;9.02;;;2.20;;
53263;SDS011;39153;52.680;6.172;2023-08-07T02:40:47;9.30;;;2.40;;
53263;SDS011;39153;52.680;6.172;2023-08-07T02:43:13;8.70;;;2.60;;
53263;SDS011;39153;52.680;6.172;2023-08-07T02:45:39;9.23;;;2.40;;
53263;SDS011;39153;52.680;6.172;2023-08-07T02:48:04;13.38;;;2.38;;
53263;SDS011;39153;52.680;6.172;2023-08-07T02:50:30;10.63;;;2.67;;
53263;SDS011;39153;52.680;6.172;2023-08-07T02:53:00;9.82;;;2.80;;
53263;SDS011;39153;52.680;6.172;2023-08-07T02:55:26;9.30;;;1.80;;
53263;SDS011;39153;52.680;6.172;2023-08-07T02:57:51;12.60;;;3.22;;
53263;SDS011;39153;52.680;6.172;2023-08-07T03:00:17;15.00;;;2.22;;
53263;SDS011;39153;52.680;6.172;2023-08-07T03:02:43;10.32;;;2.90;;
53263;SDS011;39153;52.680;6.172;2023-08-07T03:05:09;14.82;;;3.47;;
53263;SDS011;39153;52.680;6.172;2023-08-07T03:07:34;12.95;;;3.25;;
53263;SDS011;39153;52.680;6.172;2023-08-07T03:10:00;11.50;;;3.35;;
53263;SDS011;39153;52.680;6.172;2023-08-07T03:12:26;17.77;;;2.97;;
53263;SDS011;39153;52.680;6.172;2023-08-07T03:14:51;15.00;;;4.25;;
53263;SDS011;39153;52.680;6.172;2023-08-07T03:17:17;11.27;;;2.92;;
53263;SDS011;39153;52.680;6.172;2023-08-07T03:19:43;15.90;;;3.78;;
53263;SDS011;39153;52.680;6.172;2023-08-07T03:22:09;17.40;;;3.72;;
53263;SDS011;39153;52.680;6.172;2023-08-07T03:24:35;14.45;;;2.80;;
53263;SDS011;39153;52.680;6.172;2023-08-07T03:27:00;14.27;;;3.90;;
53263;SDS011;39153;52.680;6.172;2023-08-07T03:29:26;13.35;;;4.13;;
53263;SDS011;39153;52.680;6.172;2023-08-07T03:31:52;17.15;;;3.33;;
53263;SDS011;39153;52.680;6.172;2023-08-07T03:34:17;18.30;;;2.88;;
53263;SDS011;39153;52.680;6.172;2023-08-07T03:36:44;18.25;;;4.43;;
53263;SDS011;39153;52.680;6.172;2023-08-07T03:39:10;16.98;;;4.45;;
53263;SDS011;39153;52.680;6.172;2023-08-07T03:41:37;17.55;;;3.95;;
53263;SDS011;39153;52.680;6.172;2023-08-07T03:44:03;19.98;;;4.53;;
53263;SDS011;39153;52.680;6.172;2023-08-07T03:46:29;18.40;;;4.07;;
53263;SDS011;39153;52.680;6.172;2023-08-07T03:48:54;18.58;;;4.18;;
53263;SDS011;39153;52.680;6.172;2023-08-07T03:51:20;14.20;;;2.42;;
53263;SDS011;39153;52.680;6.172;2023-08-07T03:53:46;17.80;;;3.38;;
53263;SDS011;39153;52.680;6.172;2023-08-07T03:56:11;9.63;;;2.40;;
53263;SDS011;39153;52.680;6.172;2023-08-07T03:58:37;5.68;;;1.60;;
53263;SDS011;39153;52.680;6.172;2023-08-07T04:01:03;10.05;;;2.58;;
53263;SDS011;39153;52.680;6.172;2023-08-07T04:03:29;10.20;;;2.35;;
53263;SDS011;39153;52.680;6.172;2023-08-07T04:05:55;7.50;;;1.85;;
53263;SDS011;39153;52.680;6.172;2023-08-07T04:08:21;14.57;;;2.55;;
53263;SDS011;39153;52.680;6.172;2023-08-07T04:11:00;11.18;;;3.40;;
53263;SDS011;39153;52.680;6.172;2023-08-07T04:13:27;13.95;;;2.60;;
53263;SDS011;39153;52.680;6.172;2023-08-07T04:15:53;10.90;;;3.45;;
53263;SDS011;39153;52.680;6.172;2023-08-07T04:18:19;12.82;;;4.05;;
53263;SDS011;39153;52.680;6.172;2023-08-07T04:21:03;16.92;;;4.00;;
53263;SDS011;39153;52.680;6.172;2023-08-07T04:23:29;13.52;;;4.13;;
53263;SDS011;39153;52.680;6.172;2023-08-07T04:25:56;12.85;;;4.43;;
53263;SDS011;39153;52.680;6.172;2023-08-07T04:28:23;15.05;;;4.43;;
53263;SDS011;39153;52.680;6.172;2023-08-07T04:30:49;13.32;;;4.88;;
53263;SDS011;39153;52.680;6.172;2023-08-07T04:33:16;11.73;;;4.38;;
53263;SDS011;39153;52.680;6.172;2023-08-07T04:35:41;13.55;;;4.80;;
53263;SDS011;39153;52.680;6.172;2023-08-07T04:38:07;12.93;;;3.30;;
53263;SDS011;39153;52.680;6.172;2023-08-07T04:40:33;12.32;;;3.92;;
53263;SDS011;39153;52.680;6.172;2023-08-07T04:43:00;17.88;;;4.22;;
53263;SDS011;39153;52.680;6.172;2023-08-07T04:45:27;14.38;;;3.40;;
53263;SDS011;39153;52.680;6.172;2023-08-07T04:47:52;15.30;;;5.00;;
53263;SDS011;39153;52.680;6.172;2023-08-07T04:50:18;17.65;;;4.75;;
53263;SDS011;39153;52.680;6.172;2023-08-07T04:52:44;18.38;;;4.40;;
53263;SDS011;39153;52.680;6.172;2023-08-07T04:55:09;18.60;;;5.50;;
53263;SDS011;39153;52.680;6.172;2023-08-07T04:57:35;17.50;;;4.90;;
53263;SDS011;39153;52.680;6.172;2023-08-07T05:00:01;18.15;;;3.78;;
53263;SDS011;39153;52.680;6.172;2023-08-07T05:02:26;14.25;;;4.40;;
53263;SDS011;39153;52.680;6.172;2023-08-07T05:04:52;13.85;;;4.55;;
53263;SDS011;39153;52.680;6.172;2023-08-07T05:07:18;11.05;;;3.97;;
53263;SDS011;39153;52.680;6.172;2023-08-07T05:09:43;9.85;;;3.65;;
53263;SDS011;39153;52.680;6.172;2023-08-07T05:12:09;11.23;;;3.85;;
53263;SDS011;39153;52.680;6.172;2023-08-07T05:14:35;11.38;;;3.88;;
53263;SDS011;39153;52.680;6.172;2023-08-07T05:17:00;13.98;;;4.18;;
53263;SDS011;39153;52.680;6.172;2023-08-07T05:19:26;15.15;;;4.53;;
53263;SDS011;39153;52.680;6.172;2023-08-07T05:21:52;16.95;;;4.30;;
53263;SDS011;39153;52.680;6.172;2023-08-07T05:24:18;13.57;;;2.88;;
53263;SDS011;39153;52.680;6.172;2023-08-07T05:26:43;17.92;;;3.47;;
53263;SDS011;39153;52.680;6.172;2023-08-07T05:29:09;16.98;;;4.55;;
53263;SDS011;39153;52.680;6.172;2023-08-07T05:31:35;15.70;;;3.33;;
53263;SDS011;39153;52.680;6.172;2023-08-07T05:34:01;11.98;;;4.10;;
53263;SDS011;39153;52.680;6.172;2023-08-07T05:36:27;17.35;;;3.97;;
53263;SDS011;39153;52.680;6.172;2023-08-07T05:38:54;11.93;;;3.88;;
53263;SDS011;39153;52.680;6.172;2023-08-07T05:41:19;14.75;;;4.28;;
53263;SDS011;39153;52.680;6.172;2023-08-07T05:43:45;13.82;;;3.92;;
53263;SDS011;39153;52.680;6.172;2023-08-07T05:46:11;13.90;;;4.10;;
53263;SDS011;39153;52.680;6.172;2023-08-07T05:48:36;15.80;;;4.03;;
53263;SDS011;39153;52.680;6.172;2023-08-07T05:51:02;15.25;;;3.80;;
53263;SDS011;39153;52.680;6.172;2023-08-07T05:53:28;15.38;;;4.00;;
53263;SDS011;39153;52.680;6.172;2023-08-07T05:55:54;13.85;;;4.65;;
53263;SDS011;39153;52.680;6.172;2023-08-07T05:58:20;16.10;;;4.50;;
53263;SDS011;39153;52.680;6.172;2023-08-07T06:00:46;13.20;;;4.50;;
53263;SDS011;39153;52.680;6.172;2023-08-07T06:03:12;12.57;;;4.18;;
53263;SDS011;39153;52.680;6.172;2023-08-07T06:05:38;11.68;;;3.75;;
53263;SDS011;39153;52.680;6.172;2023-08-07T06:08:03;11.48;;;3.95;;
53263;SDS011;39153;52.680;6.172;2023-08-07T06:10:29;13.25;;;4.10;;
53263;SDS011;39153;52.680;6.172;2023-08-07T06:12:55;12.45;;;3.92;;
53263;SDS011;39153;52.680;6.172;2023-08-07T06:15:21;15.27;;;3.33;;
53263;SDS011;39153;52.680;6.172;2023-08-07T06:17:47;12.40;;;3.38;;
53263;SDS011;39153;52.680;6.172;2023-08-07T06:20:12;16.60;;;4.88;;
53263;SDS011;39153;52.680;6.172;2023-08-07T06:22:41;15.70;;;4.53;;
53263;SDS011;39153;52.680;6.172;2023-08-07T06:25:07;14.52;;;4.22;;
53263;SDS011;39153;52.680;6.172;2023-08-07T06:27:33;16.15;;;3.38;;
53263;SDS011;39153;52.680;6.172;2023-08-07T06:29:59;13.27;;;3.92;;
53263;SDS011;39153;52.680;6.172;2023-08-07T06:32:25;12.80;;;3.97;;
53263;SDS011;39153;52.680;6.172;2023-08-07T06:34:51;13.00;;;3.05;;
53263;SDS011;39153;52.680;6.172;2023-08-07T06:37:17;10.38;;;3.00;;
53263;SDS011;39153;52.680;6.172;2023-08-07T06:39:43;12.45;;;4.10;;
53263;SDS011;39153;52.680;6.172;2023-08-07T06:42:11;11.93;;;3.53;;
53263;SDS011;39153;52.680;6.172;2023-08-07T06:44:37;11.52;;;3.35;;
53263;SDS011;39153;52.680;6.172;2023-08-07T06:47:03;14.85;;;3.20;;
53263;SDS011;39153;52.680;6.172;2023-08-07T06:49:28;15.57;;;3.33;;
53263;SDS011;39153;52.680;6.172;2023-08-07T06:51:57;12.90;;;3.72;;
53263;SDS011;39153;52.680;6.172;2023-08-07T06:54:23;17.40;;;3.78;;
53263;SDS011;39153;52.680;6.172;2023-08-07T06:56:49;14.80;;;4.50;;
53263;SDS011;39153;52.680;6.172;2023-08-07T06:59:14;13.25;;;3.75;;
53263;SDS011;39153;52.680;6.172;2023-08-07T07:01:40;11.40;;;3.97;;
53263;SDS011;39153;52.680;6.172;2023-08-07T07:04:06;16.17;;;2.97;;
53263;SDS011;39153;52.680;6.172;2023-08-07T07:06:32;13.82;;;4.18;;
53263;SDS011;39153;52.680;6.172;2023-08-07T07:08:58;13.43;;;3.70;;
53263;SDS011;39153;52.680;6.172;2023-08-07T07:11:24;11.65;;;3.45;;
53263;SDS011;39153;52.680;6.172;2023-08-07T07:13:51;15.23;;;4.15;;
53263;SDS011;39153;52.680;6.172;2023-08-07T07:16:20;14.88;;;3.92;;
53263;SDS011;39153;52.680;6.172;2023-08-07T07:18:47;12.93;;;3.45;;
53263;SDS011;39153;52.680;6.172;2023-08-07T07:21:14;11.77;;;3.60;;
53263;SDS011;39153;52.680;6.172;2023-08-07T07:23:43;13.05;;;3.10;;
53263;SDS011;39153;52.680;6.172;2023-08-07T07:26:09;13.23;;;3.50;;
53263;SDS011;39153;52.680;6.172;2023-08-07T07:28:34;10.73;;;3.30;;
53263;SDS011;39153;52.680;6.172;2023-08-07T07:31:00;12.65;;;3.38;;
53263;SDS011;39153;52.680;6.172;2023-08-07T07:33:26;11.82;;;3.10;;
53263;SDS011;39153;52.680;6.172;2023-08-07T07:35:52;13.10;;;3.33;;
53263;SDS011;39153;52.680;6.172;2023-08-07T07:38:18;9.30;;;2.75;;
53263;SDS011;39153;52.680;6.172;2023-08-07T07:40:44;9.80;;;2.47;;
53263;SDS011;39153;52.680;6.172;2023-08-07T07:43:10;7.15;;;2.42;;
53263;SDS011;39153;52.680;6.172;2023-08-07T07:45:36;6.18;;;2.20;;
53263;SDS011;39153;52.680;6.172;2023-08-07T07:48:05;8.45;;;2.55;;
53263;SDS011;39153;52.680;6.172;2023-08-07T07:50:33;10.77;;;2.92;;
53263;SDS011;39153;52.680;6.172;2023-08-07T07:52:59;11.05;;;3.13;;
53263;SDS011;39153;52.680;6.172;2023-08-07T07:55:25;9.93;;;3.17;;
53263;SDS011;39153;52.680;6.172;2023-08-07T07:57:51;9.75;;;3.47;;
53263;SDS011;39153;52.680;6.172;2023-08-07T08:00:17;10.00;;;3.20;;
53263;SDS011;39153;52.680;6.172;2023-08-07T08:02:43;13.43;;;4.68;;
53263;SDS011;39153;52.680;6.172;2023-08-07T08:05:09;14.45;;;3.75;;
53263;SDS011;39153;52.680;6.172;2023-08-07T08:07:38;9.38;;;2.72;;
53263;SDS011;39153;52.680;6.172;2023-08-07T08:10:07;14.55;;;2.90;;
53263;SDS011;39153;52.680;6.172;2023-08-07T08:12:34;10.60;;;3.38;;
53263;SDS011;39153;52.680;6.172;2023-08-07T08:15:00;11.68;;;2.72;;
53263;SDS011;39153;52.680;6.172;2023-08-07T08:17:26;12.20;;;2.85;;
53263;SDS011;39153;52.680;6.172;2023-08-07T08:19:52;12.75;;;3.00;;
53263;SDS011;39153;52.680;6.172;2023-08-07T08:22:18;13.30;;;3.58;;
53263;SDS011;39153;52.680;6.172;2023-08-07T08:24:44;12.55;;;3.45;;
53263;SDS011;39153;52.680;6.172;2023-08-07T08:27:09;11.10;;;3.33;;
53263;SDS011;39153;52.680;6.172;2023-08-07T08:29:35;14.27;;;3.15;;
53263;SDS011;39153;52.680;6.172;2023-08-07T08:32:01;12.70;;;3.38;;
53263;SDS011;39153;52.680;6.172;2023-08-07T08:34:27;10.20;;;3.20;;
53263;SDS011;39153;52.680;6.172;2023-08-07T08:36:53;11.25;;;3.17;;
53263;SDS011;39153;52.680;6.172;2023-08-07T08:39:18;12.45;;;3.53;;
53263;SDS011;39153;52.680;6.172;2023-08-07T08:41:47;11.40;;;3.40;;
53263;SDS011;39153;52.680;6.172;2023-08-07T08:44:15;10.50;;;3.33;;
53263;SDS011;39153;52.680;6.172;2023-08-07T08:46:44;12.10;;;4.18;;
53263;SDS011;39153;52.680;6.172;2023-08-07T08:49:14;12.27;;;4.25;;
53263;SDS011;39153;52.680;6.172;2023-08-07T08:51:47;14.93;;;3.53;;
53263;SDS011;39153;52.680;6.172;2023-08-07T08:54:14;12.38;;;3.38;;
53263;SDS011;39153;52.680;6.172;2023-08-07T08:56:40;13.65;;;3.78;;
53263;SDS011;39153;52.680;6.172;2023-08-07T08:59:06;8.48;;;2.80;;
53263;SDS011;39153;52.680;6.172;2023-08-07T09:01:32;8.85;;;2.50;;
53263;SDS011;39153;52.680;6.172;2023-08-07T09:03:58;11.68;;;2.63;;
53263;SDS011;39153;52.680;6.172;2023-08-07T09:06:25;9.15;;;2.90;;
53263;SDS011;39153;52.680;6.172;2023-08-07T09:08:52;12.35;;;3.15;;
53263;SDS011;39153;52.680;6.172;2023-08-07T09:11:20;14.43;;;2.30;;
53263;SDS011;39153;52.680;6.172;2023-08-07T09:13:46;6.38;;;1.80;;
53263;SDS011;39153;52.680;6.172;2023-08-07T09:16:13;9.10;;;2.38;;
53263;SDS011;39153;52.680;6.172;2023-08-07T09:18:41;13.38;;;3.05;;
53263;SDS011;39153;52.680;6.172;2023-08-07T09:21:08;9.30;;;2.03;;
53263;SDS011;39153;52.680;6.172;2023-08-07T09:23:34;10.18;;;2.03;;
53263;SDS011;39153;52.680;6.172;2023-08-07T09:26:03;11.73;;;2.67;;
53263;SDS011;39153;52.680;6.172;2023-08-07T09:28:30;10.23;;;2.78;;
53263;SDS011;39153;52.680;6.172;2023-08-07T09:30:57;10.20;;;2.58;;
53263;SDS011;39153;52.680;6.172;2023-08-07T09:33:28;10.02;;;2.08;;
53263;SDS011;39153;52.680;6.172;2023-08-07T09:35:58;8.23;;;2.45;;
53263;SDS011;39153;52.680;6.172;2023-08-07T09:38:28;5.85;;;2.08;;
53263;SDS011;39153;52.680;6.172;2023-08-07T09:41:01;6.13;;;1.90;;
53263;SDS011;39153;52.680;6.172;2023-08-07T09:43:34;9.32;;;2.75;;
53263;SDS011;39153;52.680;6.172;2023-08-07T09:46:05;8.00;;;2.22;;
53263;SDS011;39153;52.680;6.172;2023-08-07T09:48:31;10.43;;;2.53;;
53263;SDS011;39153;52.680;6.172;2023-08-07T09:51:03;10.25;;;3.05;;
53263;SDS011;39153;52.680;6.172;2023-08-07T09:53:29;8.63;;;2.67;;
53263;SDS011;39153;52.680;6.172;2023-08-07T09:55:55;10.82;;;2.83;;
53263;SDS011;39153;52.680;6.172;2023-08-07T09:58:22;14.50;;;2.72;;
53263;SDS011;39153;52.680;6.172;2023-08-07T10:00:48;8.55;;;2.58;;
53263;SDS011;39153;52.680;6.172;2023-08-07T10:03:15;10.50;;;2.60;;
53263;SDS011;39153;52.680;6.172;2023-08-07T10:05:42;8.85;;;2.90;;
53263;SDS011;39153;52.680;6.172;2023-08-07T10:08:08;16.00;;;3.35;;
53263;SDS011;39153;52.680;6.172;2023-08-07T10:10:36;11.52;;;2.53;;
53263;SDS011;39153;52.680;6.172;2023-08-07T10:13:03;10.40;;;2.42;;
53263;SDS011;39153;52.680;6.172;2023-08-07T10:15:29;7.65;;;2.38;;
53263;SDS011;39153;52.680;6.172;2023-08-07T10:17:56;9.55;;;2.65;;
53263;SDS011;39153;52.680;6.172;2023-08-07T10:20:24;7.93;;;2.53;;
53263;SDS011;39153;52.680;6.172;2023-08-07T10:22:52;8.15;;;2.55;;
53263;SDS011;39153;52.680;6.172;2023-08-07T10:25:21;10.65;;;2.60;;
53263;SDS011;39153;52.680;6.172;2023-08-07T10:27:49;9.75;;;2.47;;
53263;SDS011;39153;52.680;6.172;2023-08-07T10:30:17;6.95;;;2.50;;
53263;SDS011;39153;52.680;6.172;2023-08-07T10:32:45;10.20;;;2.38;;
53263;SDS011;39153;52.680;6.172;2023-08-07T10:35:28;11.90;;;2.30;;
53263;SDS011;39153;52.680;6.172;2023-08-07T10:38:04;9.30;;;2.20;;
53263;SDS011;39153;52.680;6.172;2023-08-07T10:40:46;8.35;;;2.28;;
53263;SDS011;39153;52.680;6.172;2023-08-07T10:43:37;8.45;;;2.70;;
53263;SDS011;39153;52.680;6.172;2023-08-07T10:46:15;7.97;;;2.30;;
53263;SDS011;39153;52.680;6.172;2023-08-07T10:48:42;9.57;;;2.50;;
53263;SDS011;39153;52.680;6.172;2023-08-07T10:51:13;8.52;;;2.13;;
53263;SDS011;39153;52.680;6.172;2023-08-07T10:53:41;7.65;;;2.08;;
53263;SDS011;39153;52.680;6.172;2023-08-07T10:56:09;11.15;;;2.78;;
53263;SDS011;39153;52.680;6.172;2023-08-07T10:58:37;7.85;;;2.25;;
53263;SDS011;39153;52.680;6.172;2023-08-07T11:03:58;9.88;;;2.58;;
53263;SDS011;39153;52.680;6.172;2023-08-07T11:06:26;8.73;;;2.22;;
53263;SDS011;39153;52.680;6.172;2023-08-07T11:08:58;7.90;;;2.47;;
53263;SDS011;39153;52.680;6.172;2023-08-07T11:11:26;6.82;;;2.40;;
53263;SDS011;39153;52.680;6.172;2023-08-07T11:13:52;9.20;;;2.20;;
53263;SDS011;39153;52.680;6.172;2023-08-07T11:16:18;7.40;;;2.15;;
53263;SDS011;39153;52.680;6.172;2023-08-07T11:18:48;8.05;;;2.20;;
53263;SDS011;39153;52.680;6.172;2023-08-07T11:21:14;5.93;;;1.85;;
53263;SDS011;39153;52.680;6.172;2023-08-07T11:23:40;7.50;;;2.08;;
53263;SDS011;39153;52.680;6.172;2023-08-07T11:26:07;6.47;;;1.80;;
53263;SDS011;39153;52.680;6.172;2023-08-07T11:28:34;9.10;;;2.25;;
53263;SDS011;39153;52.680;6.172;2023-08-07T11:31:00;6.15;;;2.03;;
53263;SDS011;39153;52.680;6.172;2023-08-07T11:33:26;6.35;;;2.03;;
53263;SDS011;39153;52.680;6.172;2023-08-07T11:35:53;10.07;;;1.70;;
53263;SDS011;39153;52.680;6.172;2023-08-07T11:38:29;5.97;;;1.90;;
53263;SDS011;39153;52.680;6.172;2023-08-07T11:41:05;7.63;;;2.05;;
53263;SDS011;39153;52.680;6.172;2023-08-07T11:43:32;9.70;;;2.40;;
53263;SDS011;39153;52.680;6.172;2023-08-07T11:45:59;9.80;;;1.90;;
53263;SDS011;39153;52.680;6.172;2023-08-07T11:48:27;6.57;;;1.70;;
53263;SDS011;39153;52.680;6.172;2023-08-07T11:50:54;8.90;;;2.30;;
53263;SDS011;39153;52.680;6.172;2023-08-07T11:53:20;6.05;;;1.70;;
53263;SDS011;39153;52.680;6.172;2023-08-07T11:55:51;6.53;;;2.00;;
53263;SDS011;39153;52.680;6.172;2023-08-07T11:58:21;4.75;;;1.65;;
53263;SDS011;39153;52.680;6.172;2023-08-07T12:00:47;8.52;;;1.90;;
53263;SDS011;39153;52.680;6.172;2023-08-07T12:03:26;5.50;;;1.73;;
53263;SDS011;39153;52.680;6.172;2023-08-07T12:05:57;5.25;;;1.60;;
53263;SDS011;39153;52.680;6.172;2023-08-07T12:08:24;6.63;;;1.50;;
53263;SDS011;39153;52.680;6.172;2023-08-07T12:10:55;6.03;;;1.85;;
53263;SDS011;39153;52.680;6.172;2023-08-07T12:13:24;5.40;;;1.52;;
53263;SDS011;39153;52.680;6.172;2023-08-07T12:15:55;5.45;;;1.70;;
53263;SDS011;39153;52.680;6.172;2023-08-07T12:18:22;8.70;;;1.88;;
53263;SDS011;39153;52.680;6.172;2023-08-07T12:20:49;6.85;;;1.90;;
53263;SDS011;39153;52.680;6.172;2023-08-07T12:23:16;6.78;;;1.75;;
53263;SDS011;39153;52.680;6.172;2023-08-07T12:25:43;7.95;;;1.65;;
53263;SDS011;39153;52.680;6.172;2023-08-07T12:28:09;5.97;;;1.73;;
53263;SDS011;39153;52.680;6.172;2023-08-07T12:30:35;5.40;;;1.80;;
53263;SDS011;39153;52.680;6.172;2023-08-07T12:33:02;7.05;;;1.90;;
53263;SDS011;39153;52.680;6.172;2023-08-07T12:35:33;6.93;;;2.03;;
53263;SDS011;39153;52.680;6.172;2023-08-07T12:37:59;9.40;;;1.80;;
53263;SDS011;39153;52.680;6.172;2023-08-07T12:40:27;9.73;;;2.40;;
53263;SDS011;39153;52.680;6.172;2023-08-07T12:42:52;6.45;;;1.83;;
53263;SDS011;39153;52.680;6.172;2023-08-07T12:45:18;8.32;;;2.42;;
53263;SDS011;39153;52.680;6.172;2023-08-07T12:47:44;6.90;;;1.77;;
53263;SDS011;39153;52.680;6.172;2023-08-07T12:50:11;10.60;;;2.22;;
53263;SDS011;39153;52.680;6.172;2023-08-07T12:52:36;13.93;;;2.30;;
53263;SDS011;39153;52.680;6.172;2023-08-07T12:55:02;5.63;;;1.80;;
53263;SDS011;39153;52.680;6.172;2023-08-07T12:57:29;7.07;;;1.80;;
53263;SDS011;39153;52.680;6.172;2023-08-07T12:59:54;10.30;;;2.40;;
53263;SDS011;39153;52.680;6.172;2023-08-07T13:02:20;6.13;;;1.70;;
53263;SDS011;39153;52.680;6.172;2023-08-07T13:04:46;7.28;;;1.92;;
53263;SDS011;39153;52.680;6.172;2023-08-07T13:07:12;7.53;;;2.33;;
53263;SDS011;39153;52.680;6.172;2023-08-07T13:09:37;7.60;;;2.28;;
53263;SDS011;39153;52.680;6.172;2023-08-07T13:12:04;8.35;;;2.13;;
53263;SDS011;39153;52.680;6.172;2023-08-07T13:14:29;6.82;;;2.08;;
53263;SDS011;39153;52.680;6.172;2023-08-07T13:16:55;6.55;;;1.98;;
53263;SDS011;39153;52.680;6.172;2023-08-07T13:19:21;7.25;;;2.15;;
53263;SDS011;39153;52.680;6.172;2023-08-07T13:21:47;7.80;;;2.00;;
53263;SDS011;39153;52.680;6.172;2023-08-07T13:24:12;6.43;;;2.28;;
53263;SDS011;39153;52.680;6.172;2023-08-07T13:26:38;5.93;;;2.60;;
53263;SDS011;39153;52.680;6.172;2023-08-07T13:29:12;6.32;;;2.58;;
53263;SDS011;39153;52.680;6.172;2023-08-07T13:31:39;7.40;;;2.63;;
53263;SDS011;39153;52.680;6.172;2023-08-07T13:34:06;6.55;;;2.90;;
53263;SDS011;39153;52.680;6.172;2023-08-07T13:36:35;8.35;;;3.13;;
53263;SDS011;39153;52.680;6.172;2023-08-07T13:39:01;6.40;;;2.15;;
53263;SDS011;39153;52.680;6.172;2023-08-07T13:41:27;8.55;;;2.75;;
53263;SDS011;39153;52.680;6.172;2023-08-07T13:43:52;5.55;;;2.53;;
53263;SDS011;39153;52.680;6.172;2023-08-07T13:46:18;9.88;;;2.30;;
53263;SDS011;39153;52.680;6.172;2023-08-07T13:48:44;6.95;;;2.58;;
53263;SDS011;39153;52.680;6.172;2023-08-07T13:51:10;8.55;;;2.38;;
53263;SDS011;39153;52.680;6.172;2023-08-07T13:53:36;9.80;;;2.70;;
53263;SDS011;39153;52.680;6.172;2023-08-07T13:56:02;5.85;;;2.00;;
53263;SDS011;39153;52.680;6.172;2023-08-07T13:58:28;9.48;;;3.28;;
53263;SDS011;39153;52.680;6.172;2023-08-07T14:00:55;9.98;;;2.70;;
53263;SDS011;39153;52.680;6.172;2023-08-07T14:03:22;6.95;;;2.83;;
53263;SDS011;39153;52.680;6.172;2023-08-07T14:05:48;6.88;;;2.67;;
53263;SDS011;39153;52.680;6.172;2023-08-07T14:08:15;8.13;;;2.53;;
53263;SDS011;39153;52.680;6.172;2023-08-07T14:10:41;8.80;;;2.75;;
53263;SDS011;39153;52.680;6.172;2023-08-07T14:13:07;9.38;;;2.60;;
53263;SDS011;39153;52.680;6.172;2023-08-07T14:15:34;8.30;;;2.35;;
53263;SDS011;39153;52.680;6.172;2023-08-07T14:18:00;6.28;;;2.50;;
53263;SDS011;39153;52.680;6.172;2023-08-07T14:20:26;8.68;;;2.85;;
53263;SDS011;39153;52.680;6.172;2023-08-07T14:22:52;8.25;;;2.60;;
53263;SDS011;39153;52.680;6.172;2023-08-07T14:25:18;7.90;;;2.47;;
53263;SDS011;39153;52.680;6.172;2023-08-07T14:27:46;5.85;;;2.20;;
53263;SDS011;39153;52.680;6.172;2023-08-07T14:30:12;11.88;;;2.45;;
53263;SDS011;39153;52.680;6.172;2023-08-07T14:32:38;7.47;;;2.08;;
53263;SDS011;39153;52.680;6.172;2023-08-07T14:35:04;6.38;;;2.00;;
53263;SDS011;39153;52.680;6.172;2023-08-07T14:37:30;6.85;;;1.80;;
53263;SDS011;39153;52.680;6.172;2023-08-07T14:39:56;8.90;;;2.15;;
53263;SDS011;39153;52.680;6.172;2023-08-07T14:42:22;8.85;;;2.28;;
53263;SDS011;39153;52.680;6.172;2023-08-07T14:44:48;5.03;;;1.70;;
53263;SDS011;39153;52.680;6.172;2023-08-07T14:47:14;8.00;;;1.90;;
53263;SDS011;39153;52.680;6.172;2023-08-07T14:49:40;5.03;;;1.92;;
53263;SDS011;39153;52.680;6.172;2023-08-07T14:52:06;4.70;;;1.58;;
53263;SDS011;39153;52.680;6.172;2023-08-07T14:54:32;7.53;;;1.50;;
53263;SDS011;39153;52.680;6.172;2023-08-07T14:56:58;7.50;;;1.90;;